CYZG

Salluit Airport

Code ICAO CYZG
Code IATA YZG
Nom Salluit Airport
Emplacement Salluit, Quebec, CA
Élévation 745 pieds / 227.1 mètres
Latitude 62.17944444
Longitude -75.66722222
METAR CYZG 232100Z 04007KT 15SM FEW025 02/M02 A3031 RMK CF1 LAST STFD OBS/NEXT241200 UTC SLP284
Informations extras Afficher cartes et CFS
Afficher NOTAMS
Piste Longueur Largeur Surface Élévation
03 3523 ft 100 ft GRAVEL 723 ft
21 3523 ft 100 ft GRAVEL 745 ft